Time;durP1;ratioP1;P1;durP2;ratioP2;P2;SDS_P1;SDS_P2;PMS_P1;PMS_P2;Temp;Humidity;BMP_temperature;BMP_pressure;BME280_temperature;BME280_humidity;BME280_pressure;Samples;Min_cycle;Max_cycle;Signal;HPM_P1;HPM_P2
2022/09/29 00:00:30;;;;;;;0.63;0.60;;;5.60;99.90;;;;;;5072218;28;20055;-75
2022/09/29 00:03:00;;;;;;;0.73;0.70;;;5.70;99.90;;;;;;5050524;28;20404;-75
2022/09/29 00:05:26;;;;;;;0.60;0.60;;;5.50;99.90;;;;;;5076375;28;20052;-74
2022/09/29 00:07:51;;;;;;;0.80;0.50;;;5.60;99.90;;;;;;5068286;28;20500;-77
2022/09/29 00:10:17;;;;;;;0.60;0.60;;;5.50;99.90;;;;;;5074500;28;20033;-77
2022/09/29 00:12:43;;;;;;;0.50;0.50;;;5.70;99.90;;;;;;5057093;28;20590;-77
2022/09/29 00:15:09;;;;;;;0.77;0.77;;;5.40;99.90;;;;;;5056974;28;20080;-77
2022/09/29 00:17:35;;;;;;;1.20;0.70;;;5.70;99.90;;;;;;5067573;28;20045;-76
2022/09/29 00:20:00;;;;;;;0.60;0.60;;;5.70;99.90;;;;;;5069300;28;20102;-76
2022/09/29 00:22:26;;;;;;;0.70;0.50;;;5.40;99.90;;;;;;5072292;28;20070;-76
2022/09/29 00:24:52;;;;;;;0.88;0.68;;;5.40;99.90;;;;;;5038290;28;20040;-76
2022/09/29 00:27:18;;;;;;;0.52;0.52;;;5.50;99.90;;;;;;5053759;28;20141;-76
2022/09/29 00:29:44;;;;;;;0.45;0.40;;;5.50;99.90;;;;;;5087476;28;20079;-76
2022/09/29 00:32:10;;;;;;;0.77;0.60;;;5.30;99.90;;;;;;5072958;28;20055;-76
2022/09/29 00:34:35;;;;;;;0.40;0.40;;;5.50;99.90;;;;;;5069724;28;20040;-77
2022/09/29 00:37:01;;;;;;;0.50;0.50;;;5.40;99.90;;;;;;5075764;28;20052;-76
2022/09/29 00:39:27;;;;;;;0.60;0.45;;;5.50;99.90;;;;;;5080789;28;20049;-76
2022/09/29 00:41:53;;;;;;;0.60;0.50;;;5.30;99.90;;;;;;5082836;28;20483;-76
2022/09/29 00:44:18;;;;;;;0.70;0.57;;;5.40;99.90;;;;;;5076628;28;20492;-76
2022/09/29 00:46:50;;;;;;;0.50;0.50;;;5.20;99.90;;;;;;5079064;28;20060;-76
2022/09/29 00:49:43;;;;;;;0.65;0.65;;;5.50;99.90;;;;;;5076790;28;20075;-76
2022/09/29 00:52:16;;;;;;;0.60;0.60;;;5.50;99.90;;;;;;5062130;28;20130;-76
2022/09/29 00:54:54;;;;;;;0.60;0.60;;;5.40;99.90;;;;;;5076168;28;20052;-76
2022/09/29 00:57:21;;;;;;;;;;;5.20;99.90;;;;;;5072486;28;20837;-79
2022/09/29 00:59:53;;;;;;;0.70;0.70;;;5.50;99.90;;;;;;5085752;28;19924;-78
2022/09/29 01:02:20;;;;;;;1.10;0.77;;;5.30;99.90;;;;;;5094221;28;20049;-79
2022/09/29 01:04:48;;;;;;;0.93;0.80;;;5.60;99.90;;;;;;5072771;28;20049;-78
2022/09/29 01:07:14;;;;;;;0.80;0.80;;;5.60;99.90;;;;;;5093931;28;20044;-79
2022/09/29 01:09:42;;;;;;;1.00;0.90;;;5.40;99.90;;;;;;5072849;28;20033;-79
2022/09/29 01:12:07;;;;;;;1.17;0.82;;;5.60;99.90;;;;;;5080221;28;20048;-78
2022/09/29 01:14:36;;;;;;;1.45;1.20;;;5.40;99.90;;;;;;5079081;28;20052;-78
2022/09/29 01:17:02;;;;;;;1.20;1.02;;;5.50;99.90;;;;;;5078051;28;20101;-78
2022/09/29 01:19:40;;;;;;;1.08;0.93;;;5.70;99.90;;;;;;5086592;28;20048;-78
2022/09/29 01:22:18;;;;;;;1.13;0.90;;;5.60;99.90;;;;;;5077547;28;20040;-78
2022/09/29 01:25:12;;;;;;;0.88;0.80;;;5.70;99.90;;;;;;5058776;28;20090;-77
2022/09/29 01:28:06;;;;;;;1.10;0.88;;;5.50;99.90;;;;;;5080697;28;20063;-78
2022/09/29 01:31:03;;;;;;;0.82;0.80;;;5.50;99.90;;;;;;5084167;28;20101;-76
2022/09/29 01:34:03;;;;;;;0.90;0.70;;;5.60;99.90;;;;;;5079242;28;20423;-76
2022/09/29 01:37:09;;;;;;;0.93;0.80;;;5.60;99.90;;;;;;5070428;28;20054;-77
2022/09/29 01:39:40;;;;;;;0.63;0.63;;;5.50;99.90;;;;;;5087619;28;20053;-78
2022/09/29 01:42:24;;;;;;;0.88;0.80;;;5.40;99.90;;;;;;5090977;28;20036;-77
2022/09/29 01:44:56;;;;;;;0.75;0.70;;;5.20;99.90;;;;;;5089949;28;20042;-77
2022/09/29 01:47:31;;;;;;;0.73;0.70;;;5.20;99.90;;;;;;5073361;28;20043;-78
2022/09/29 01:50:16;;;;;;;0.90;0.80;;;5.40;99.90;;;;;;5084566;28;20035;-78
2022/09/29 01:52:45;;;;;;;1.10;0.90;;;5.10;99.90;;;;;;5082355;28;20095;-79
2022/09/29 01:55:16;;;;;;;0.70;0.70;;;5.40;99.90;;;;;;5088534;28;20466;-78
2022/09/29 01:58:14;;;;;;;1.00;0.90;;;5.30;99.90;;;;;;5090825;28;20056;-77
2022/09/29 02:00:48;;;;;;;0.75;0.75;;;5.10;99.90;;;;;;5079781;28;20057;-77
2022/09/29 02:03:16;;;;;;;0.80;0.70;;;5.20;99.90;;;;;;5077797;28;20072;-77
2022/09/29 02:06:06;;;;;;;0.55;0.55;;;5.00;99.90;;;;;;5078693;28;20552;-77
2022/09/29 02:08:38;;;;;;;0.75;0.75;;;5.10;99.90;;;;;;5092563;28;20036;-77
2022/09/29 02:11:11;;;;;;;0.70;0.70;;;5.10;99.90;;;;;;5077408;28;20158;-77
2022/09/29 02:13:42;;;;;;;0.63;0.63;;;5.50;99.90;;;;;;5054757;28;20079;-77
2022/09/29 02:16:16;;;;;;;1.40;0.55;;;5.20;99.90;;;;;;5070897;28;20488;-77
2022/09/29 02:18:54;;;;;;;0.52;0.50;;;5.50;99.90;;;;;;5088690;28;20124;-77
2022/09/29 02:21:22;;;;;;;0.73;0.63;;;5.10;99.90;;;;;;5066046;28;20047;-77
2022/09/29 02:23:49;;;;;;;0.68;0.65;;;5.40;99.90;;;;;;5071269;28;20041;-77
2022/09/29 02:26:16;;;;;;;1.10;1.00;;;5.20;99.90;;;;;;5075337;28;20060;-76
2022/09/29 02:28:42;;;;;;;0.70;0.70;;;5.30;99.90;;;;;;5073443;28;20089;-78
2022/09/29 02:31:09;;;;;;;0.75;0.70;;;5.30;99.90;;;;;;5059422;28;20511;-78
2022/09/29 02:33:34;;;;;;;1.00;0.82;;;5.00;99.90;;;;;;5088906;28;20462;-77
2022/09/29 02:36:29;;;;;;;0.90;0.80;;;5.20;99.90;;;;;;5072874;28;20080;-77
2022/09/29 02:39:12;;;;;;;0.85;0.82;;;4.90;99.90;;;;;;5086206;28;20510;-77
2022/09/29 02:42:18;;;;;;;1.27;1.00;;;5.20;99.90;;;;;;5081443;28;20036;-78
2022/09/29 02:44:44;;;;;;;1.10;0.85;;;4.90;99.90;;;;;;5058427;28;20121;-77
2022/09/29 02:47:30;;;;;;;1.33;1.03;;;4.90;99.90;;;;;;5074985;28;20036;-77
2022/09/29 02:50:17;;;;;;;1.10;1.00;;;5.00;99.90;;;;;;5056984;28;20290;-76
2022/09/29 02:53:08;;;;;;;1.38;1.10;;;5.00;99.90;;;;;;5080231;28;20039;-77
2022/09/29 02:55:39;;;;;;;0.80;0.70;;;5.30;99.90;;;;;;5062939;28;20226;-77
2022/09/29 02:58:19;;;;;;;0.98;0.80;;;5.20;99.90;;;;;;5065081;28;20167;-77
2022/09/29 03:00:46;;;;;;;1.00;0.80;;;4.80;99.90;;;;;;5076014;28;20041;-77
2022/09/29 03:03:11;;;;;;;0.80;0.80;;;4.80;99.90;;;;;;5071865;28;20182;-77
2022/09/29 03:05:37;;;;;;;1.10;0.95;;;5.10;99.90;;;;;;5057968;28;20119;-77
2022/09/29 03:08:04;;;;;;;1.02;0.93;;;5.10;99.90;;;;;;5084368;28;20040;-77
2022/09/29 03:10:29;;;;;;;0.90;0.90;;;5.00;99.90;;;;;;5053637;28;20113;-77
2022/09/29 03:12:55;;;;;;;1.20;0.95;;;4.80;99.90;;;;;;5073254;28;20495;-77
2022/09/29 03:15:21;;;;;;;1.05;0.90;;;4.70;99.90;;;;;;5062390;28;20040;-77
2022/09/29 03:17:47;;;;;;;1.10;0.88;;;5.00;99.90;;;;;;5087998;28;20105;-77
2022/09/29 03:20:13;;;;;;;1.23;1.08;;;4.70;99.90;;;;;;5064482;28;20048;-77
2022/09/29 03:22:38;;;;;;;1.10;0.98;;;5.00;99.90;;;;;;5068325;28;20640;-77
2022/09/29 03:25:05;;;;;;;0.80;0.80;;;4.80;99.90;;;;;;5067538;28;20044;-77
2022/09/29 03:27:32;;;;;;;0.77;0.75;;;5.00;99.90;;;;;;5057988;28;20393;-77
2022/09/29 03:29:58;;;;;;;;;;;4.70;99.90;;;;;;5082111;28;20040;-78
2022/09/29 03:32:23;;;;;;;1.10;0.90;;;4.90;99.90;;;;;;5070570;28;19916;-77
2022/09/29 03:34:49;;;;;;;1.23;1.13;;;4.70;99.90;;;;;;5087824;28;20123;-77
2022/09/29 03:37:15;;;;;;;1.10;1.00;;;4.90;99.90;;;;;;5086043;28;20051;-77
2022/09/29 03:39:40;;;;;;;1.33;1.20;;;4.90;99.90;;;;;;5084527;28;20523;-77
2022/09/29 03:42:06;;;;;;;1.52;1.20;;;4.90;99.90;;;;;;5072802;28;20078;-77
2022/09/29 03:44:32;;;;;;;1.90;1.33;;;4.90;99.90;;;;;;5071344;28;20039;-78
2022/09/29 03:46:57;;;;;;;1.95;1.48;;;4.90;99.90;;;;;;5058445;28;20076;-77
2022/09/29 03:49:23;;;;;;;1.65;1.20;;;4.50;99.90;;;;;;5072863;28;20037;-77
2022/09/29 03:51:49;;;;;;;1.70;1.30;;;4.50;99.90;;;;;;5078410;28;20044;-77
2022/09/29 03:54:14;;;;;;;1.50;1.30;;;4.50;99.90;;;;;;5041233;28;20122;-78
2022/09/29 03:56:40;;;;;;;1.65;1.40;;;4.70;99.90;;;;;;5045661;28;20045;-77
2022/09/29 03:59:08;;;;;;;1.92;1.63;;;4.80;99.90;;;;;;5081301;28;20032;-77
2022/09/29 04:01:34;;;;;;;1.98;1.75;;;4.50;99.90;;;;;;5055751;28;20079;-77
2022/09/29 04:04:01;;;;;;;1.70;1.48;;;4.80;99.90;;;;;;5065321;28;20033;-76
2022/09/29 04:06:26;;;;;;;1.40;1.15;;;4.80;99.90;;;;;;5071737;28;20115;-77
2022/09/29 04:08:52;;;;;;;1.52;1.40;;;4.80;99.90;;;;;;5076511;28;20210;-77
2022/09/29 04:11:18;;;;;;;1.23;0.98;;;4.60;99.90;;;;;;5074353;28;20036;-78
2022/09/29 04:13:43;;;;;;;1.40;1.20;;;4.80;99.90;;;;;;5065268;28;20455;-77
2022/09/29 04:16:09;;;;;;;1.30;1.20;;;4.70;99.90;;;;;;5086894;28;20058;-77
2022/09/29 04:18:35;;;;;;;1.70;1.35;;;4.60;99.90;;;;;;5064942;28;20119;-77
2022/09/29 04:21:08;;;;;;;;;;;4.60;99.90;;;;;;5074082;28;20107;-77
2022/09/29 04:23:34;;;;;;;1.73;1.58;;;4.70;99.90;;;;;;5068675;28;19924;-77
2022/09/29 04:26:01;;;;;;;;;;;4.50;99.90;;;;;;5074344;28;20047;-76
2022/09/29 04:28:27;;;;;;;1.70;1.60;;;4.60;99.90;;;;;;5075589;28;19927;-77
2022/09/29 04:30:53;;;;;;;1.55;1.40;;;4.50;99.90;;;;;;5066410;28;20048;-77
2022/09/29 04:33:18;;;;;;;1.92;1.25;;;4.60;99.90;;;;;;5094580;28;20106;-77
2022/09/29 04:35:45;;;;;;;1.15;1.05;;;4.60;99.90;;;;;;5085129;28;20454;-76
2022/09/29 04:38:11;;;;;;;1.27;1.17;;;4.50;99.90;;;;;;5055967;28;20088;-77
2022/09/29 04:40:37;;;;;;;1.70;1.38;;;4.40;99.90;;;;;;5069123;28;20060;-77
2022/09/29 04:43:03;;;;;;;1.60;1.40;;;4.40;99.90;;;;;;5083698;28;20451;-78
2022/09/29 04:45:30;;;;;;;;;;;4.40;99.90;;;;;;5085733;28;20075;-78
2022/09/29 04:47:56;;;;;;;1.40;1.30;;;4.50;99.90;;;;;;5066906;28;19966;-78
2022/09/29 04:50:23;;;;;;;1.38;1.27;;;4.50;99.90;;;;;;5088172;28;20055;-78
2022/09/29 04:52:49;;;;;;;1.33;1.23;;;4.70;99.90;;;;;;5076691;28;20047;-76
2022/09/29 04:55:14;;;;;;;1.40;1.30;;;4.40;99.90;;;;;;5084865;28;20142;-77
2022/09/29 04:57:42;;;;;;;1.38;1.27;;;4.40;99.90;;;;;;5087768;28;20051;-77
2022/09/29 05:00:09;;;;;;;1.95;1.10;;;4.80;99.90;;;;;;5094280;28;20040;-77
2022/09/29 05:02:35;;;;;;;1.30;1.20;;;4.70;99.90;;;;;;5079867;28;20040;-77
2022/09/29 05:05:01;;;;;;;1.50;1.38;;;4.60;99.90;;;;;;5088461;28;20044;-77
2022/09/29 05:07:27;;;;;;;;;;;4.60;99.90;;;;;;5081521;28;20430;-77
2022/09/29 05:09:52;;;;;;;1.15;1.02;;;4.70;99.90;;;;;;5083229;28;19916;-77
2022/09/29 05:12:18;;;;;;;1.15;1.05;;;4.80;99.90;;;;;;5092152;28;20488;-77
2022/09/29 05:14:44;;;;;;;1.17;1.00;;;4.80;99.90;;;;;;5090342;28;20047;-77
2022/09/29 05:17:09;;;;;;;0.90;0.90;;;4.70;99.90;;;;;;5093805;28;20044;-77
2022/09/29 05:19:35;;;;;;;0.98;0.93;;;4.80;99.90;;;;;;5075162;28;20493;-77
2022/09/29 05:22:01;;;;;;;1.48;1.20;;;4.90;99.90;;;;;;5082483;28;20044;-76
2022/09/29 05:24:27;;;;;;;1.30;1.20;;;4.70;99.90;;;;;;5069054;28;20036;-76
2022/09/29 05:26:53;;;;;;;1.75;1.35;;;5.00;99.90;;;;;;5062364;28;20063;-77
2022/09/29 05:29:19;;;;;;;1.60;1.23;;;5.00;99.90;;;;;;5080939;28;20043;-78
2022/09/29 05:31:45;;;;;;;1.52;1.13;;;5.00;99.90;;;;;;5072185;28;20043;-78
2022/09/29 05:34:10;;;;;;;1.50;1.30;;;5.00;99.90;;;;;;5074339;28;20059;-79
2022/09/29 05:36:36;;;;;;;1.45;1.23;;;4.60;99.90;;;;;;5085318;28;20445;-78
2022/09/29 05:39:02;;;;;;;1.33;1.15;;;4.60;99.90;;;;;;5079106;28;20385;-78
2022/09/29 05:41:28;;;;;;;1.70;1.20;;;4.50;99.90;;;;;;5071567;28;20148;-79
2022/09/29 05:43:55;;;;;;;1.58;1.20;;;4.70;99.90;;;;;;5077611;28;20126;-80
2022/09/29 05:46:22;;;;;;;1.77;1.27;;;4.50;99.90;;;;;;5057304;28;20442;-78
2022/09/29 05:48:50;;;;;;;1.50;1.20;;;4.80;99.90;;;;;;5056826;28;20040;-79
2022/09/29 05:51:19;;;;;;;1.25;1.15;;;4.80;99.90;;;;;;5080562;28;20040;-78
2022/09/29 05:53:45;;;;;;;1.45;1.23;;;4.60;99.90;;;;;;5090281;28;20082;-79
2022/09/29 05:56:20;;;;;;;1.73;1.42;;;4.40;99.90;;;;;;5088245;28;20071;-78
2022/09/29 05:58:46;;;;;;;1.42;1.33;;;4.60;99.90;;;;;;5091579;28;20130;-79
2022/09/29 06:01:15;;;;;;;1.73;1.20;;;4.80;99.90;;;;;;5090666;28;20047;-78
2022/09/29 06:03:41;;;;;;;1.60;1.20;;;4.80;99.90;;;;;;5074660;28;20468;-78
2022/09/29 06:06:15;;;;;;;1.30;1.20;;;4.90;99.90;;;;;;5091715;28;20032;-79
2022/09/29 06:08:42;;;;;;;1.50;1.20;;;4.90;99.90;;;;;;5075029;28;20422;-78
2022/09/29 06:11:12;;;;;;;2.10;1.30;;;4.60;99.90;;;;;;5091269;28;20071;-78
2022/09/29 06:13:40;;;;;;;1.35;1.15;;;4.60;99.90;;;;;;5074678;28;20574;-78
2022/09/29 06:16:07;;;;;;;1.20;1.10;;;4.90;99.90;;;;;;5091561;28;20128;-78
2022/09/29 06:18:33;;;;;;;1.10;1.00;;;5.00;99.90;;;;;;5091631;28;20055;-78
2022/09/29 06:21:11;;;;;;;1.38;1.25;;;5.00;99.90;;;;;;5075208;28;20438;-78
2022/09/29 06:23:37;;;;;;;1.92;1.50;;;4.70;99.90;;;;;;5074264;28;20131;-79
2022/09/29 06:26:05;;;;;;;1.58;1.35;;;5.10;99.90;;;;;;5091893;28;20055;-78
2022/09/29 06:28:31;;;;;;;2.15;1.52;;;4.90;99.90;;;;;;5091436;28;20036;-78
2022/09/29 06:30:59;;;;;;;1.67;1.40;;;4.80;99.90;;;;;;5090927;28;20036;-78
2022/09/29 06:33:26;;;;;;;2.20;1.80;;;4.80;99.90;;;;;;5075244;28;20506;-78
2022/09/29 06:38:36;;;;;;;2.55;1.80;;;5.10;99.90;;;;;;5077133;28;20047;-79
2022/09/29 06:41:02;;;;;;;1.77;1.52;;;4.90;99.90;;;;;;5091264;28;20044;-78
2022/09/29 06:43:28;;;;;;;1.83;1.30;;;5.10;99.90;;;;;;5090962;28;20083;-79
2022/09/29 06:45:53;;;;;;;1.92;1.65;;;5.00;99.90;;;;;;5090994;28;20125;-78
2022/09/29 06:48:19;;;;;;;1.40;1.30;;;5.50;99.90;;;;;;5074346;28;20040;-78
2022/09/29 06:50:45;;;;;;;1.90;1.50;;;5.30;99.90;;;;;;5058002;28;20079;-76
2022/09/29 06:53:10;;;;;;;1.88;1.50;;;5.60;99.90;;;;;;5073968;28;20126;-76
2022/09/29 06:55:36;;;;;;;1.50;1.17;;;5.80;99.90;;;;;;5091301;28;20040;-75
2022/09/29 06:58:02;;;;;;;1.80;1.55;;;5.60;99.90;;;;;;5091084;28;20082;-75
2022/09/29 07:00:27;;;;;;;1.83;1.60;;;5.50;99.90;;;;;;5090950;28;20123;-76
2022/09/29 07:02:53;;;;;;;2.28;1.90;;;6.00;99.90;;;;;;5073875;28;20044;-76
2022/09/29 07:05:19;;;;;;;1.83;1.70;;;6.10;99.90;;;;;;5090951;28;20048;-76
2022/09/29 07:07:47;;;;;;;1.90;1.63;;;5.80;99.90;;;;;;5090433;28;20039;-76
2022/09/29 07:10:14;;;;;;;2.20;1.90;;;5.90;99.90;;;;;;5090563;28;20055;-77
2022/09/29 07:12:40;;;;;;;2.60;2.10;;;6.20;99.90;;;;;;5090506;28;20204;-76
2022/09/29 07:15:06;;;;;;;2.65;2.30;;;6.50;99.90;;;;;;5090216;28;20438;-76
2022/09/29 07:17:32;;;;;;;2.65;2.33;;;7.20;99.90;;;;;;5090345;28;20145;-76
2022/09/29 07:19:58;;;;;;;2.67;2.35;;;7.50;99.90;;;;;;5073275;28;20521;-76
2022/09/29 07:22:24;;;;;;;3.55;2.92;;;7.70;99.90;;;;;;5090143;28;20044;-77
2022/09/29 07:24:52;;;;;;;3.45;3.00;;;7.70;99.90;;;;;;5089926;28;20043;-77
2022/09/29 07:27:22;;;;;;;3.22;2.92;;;7.60;99.90;;;;;;5090295;28;20040;-77
2022/09/29 07:29:52;;;;;;;3.80;3.13;;;7.90;99.90;;;;;;5073394;28;20051;-77
2022/09/29 07:32:18;;;;;;;3.03;2.72;;;8.10;99.90;;;;;;5090128;28;20104;-77
2022/09/29 07:34:44;;;;;;;3.03;2.72;;;8.50;99.90;;;;;;5073126;28;20047;-77
2022/09/29 07:37:10;;;;;;;3.25;2.95;;;8.60;99.90;;;;;;5072957;28;20403;-77
2022/09/29 07:39:36;;;;;;;3.30;3.00;;;8.50;99.90;;;;;;5089374;28;20044;-76
2022/09/29 07:42:02;;;;;;;3.47;3.10;;;8.60;99.90;;;;;;5089086;28;20480;-77
2022/09/29 07:44:30;;;;;;;3.53;2.70;;;9.10;99.90;;;;;;5072664;28;20179;-77
2022/09/29 07:46:57;;;;;;;4.00;3.03;;;9.10;99.90;;;;;;5089656;28;20513;-77
2022/09/29 07:49:23;;;;;;;3.60;3.10;;;9.20;99.90;;;;;;5089609;28;20127;-77
2022/09/29 07:51:49;;;;;;;3.40;2.75;;;9.40;99.90;;;;;;5089834;28;20139;-77
2022/09/29 07:54:15;;;;;;;3.17;2.72;;;9.30;99.90;;;;;;5089480;28;20430;-76
2022/09/29 07:56:40;;;;;;;3.38;2.90;;;9.60;99.90;;;;;;5089400;28;20058;-76
2022/09/29 07:59:08;;;;;;;3.78;2.90;;;9.50;99.90;;;;;;5072748;28;20044;-76
2022/09/29 08:01:34;;;;;;;3.30;2.88;;;9.90;99.90;;;;;;5089475;28;20050;-77
2022/09/29 08:04:01;;;;;;;3.83;3.00;;;10.00;99.90;;;;;;5072135;28;20043;-77
2022/09/29 08:06:27;;;;;;;3.60;3.08;;;9.80;99.90;;;;;;5072359;28;20040;-77
2022/09/29 08:08:53;;;;;;;3.45;3.10;;;9.90;99.90;;;;;;5072734;28;20048;-77
2022/09/29 08:11:20;;;;;;;3.75;3.00;;;9.90;99.90;;;;;;5072363;28;20036;-77
2022/09/29 08:13:47;;;;;;;3.72;2.85;;;10.10;99.90;;;;;;5072440;28;20046;-77
2022/09/29 08:16:13;;;;;;;4.05;3.00;;;10.00;99.90;;;;;;5089579;28;20509;-77
2022/09/29 08:18:40;;;;;;;4.00;3.60;;;10.00;99.90;;;;;;5072635;28;20075;-76
2022/09/29 08:21:06;;;;;;;4.53;3.33;;;9.90;99.90;;;;;;5089484;28;20044;-77
2022/09/29 08:23:37;;;;;;;3.85;2.97;;;10.10;99.90;;;;;;5072850;28;20050;-76
2022/09/29 08:26:06;;;;;;;3.67;3.08;;;10.10;99.90;;;;;;5089530;28;20075;-77
2022/09/29 08:28:34;;;;;;;3.60;3.13;;;10.10;99.90;;;;;;5089543;28;20115;-77
2022/09/29 08:31:19;;;;;;;3.92;3.10;;;10.10;99.90;;;;;;5089674;28;20460;-77
2022/09/29 08:33:47;;;;;;;3.67;3.10;;;10.30;99.90;;;;;;5072716;28;20052;-77
2022/09/29 08:36:13;;;;;;;3.58;2.95;;;10.30;99.90;;;;;;5089894;28;20032;-77
2022/09/29 08:38:41;;;;;;;3.15;2.80;;;10.50;99.90;;;;;;5072943;28;20797;-77
2022/09/29 08:41:20;;;;;;;4.15;3.38;;;10.60;99.90;;;;;;5073282;28;20056;-77
2022/09/29 08:43:49;;;;;;;5.38;4.82;;;10.50;99.90;;;;;;5072378;28;20073;-76
2022/09/29 08:46:28;;;;;;;6.53;5.72;;;10.80;99.90;;;;;;5073650;28;20774;-77
2022/09/29 08:48:55;;;;;;;6.05;4.85;;;10.60;99.90;;;;;;5089338;28;20427;-77
2022/09/29 08:51:39;;;;;;;4.40;3.60;;;10.80;99.90;;;;;;5089462;28;20040;-77
2022/09/29 08:54:28;;;;;;;5.10;3.53;;;11.00;99.90;;;;;;5092110;28;20054;-76
2022/09/29 08:56:55;;;;;;;3.75;3.33;;;11.10;99.90;;;;;;5076597;28;20117;-77
2022/09/29 08:59:24;;;;;;;;;;;10.90;99.90;;;;;;5093831;28;20051;-77
2022/09/29 09:02:14;;;;;;;4.50;3.63;;;11.10;99.90;;;;;;5076309;28;19923;-76
2022/09/29 09:04:52;;;;;;;4.00;3.50;;;11.30;99.90;;;;;;5076113;28;20044;-77
2022/09/29 09:07:38;;;;;;;4.72;3.53;;;11.30;99.90;;;;;;5092976;28;20044;-77
2022/09/29 09:10:17;;;;;;;4.93;4.03;;;11.30;99.90;;;;;;5076065;28;20044;-77
2022/09/29 09:12:54;;;;;;;4.70;3.80;;;11.70;99.90;;;;;;5092517;28;20040;-77
2022/09/29 09:15:44;;;;;;;3.80;3.40;;;11.50;99.90;;;;;;5075838;28;20592;-77
2022/09/29 09:18:21;;;;;;;4.20;3.40;;;11.60;99.90;;;;;;5092752;28;20048;-77
2022/09/29 09:21:07;;;;;;;;;;;11.80;99.90;;;;;;5093314;28;20128;-77
2022/09/29 09:23:54;;;;;;;3.70;2.75;;;11.80;99.90;;;;;;5092893;28;20086;-77
2022/09/29 09:26:38;;;;;;;3.88;3.03;;;11.80;99.90;;;;;;5092594;28;20046;-77
2022/09/29 09:29:25;;;;;;;5.45;4.35;;;12.10;99.90;;;;;;5093237;28;20048;-77
2022/09/29 09:31:56;;;;;;;9.50;5.65;;;12.00;99.90;;;;;;5092678;28;20040;-77
2022/09/29 09:34:26;;;;;;;5.32;4.15;;;12.10;99.90;;;;;;5092423;28;20032;-76
2022/09/29 09:37:00;;;;;;;3.90;3.20;;;12.40;99.90;;;;;;5092649;28;20043;-77
2022/09/29 09:39:29;;;;;;;2.80;2.50;;;12.40;99.90;;;;;;5091926;28;20116;-76
2022/09/29 09:41:58;;;;;;;3.10;2.65;;;12.40;99.90;;;;;;5091742;28;20372;-76
2022/09/29 09:44:38;;;;;;;3.65;2.97;;;12.40;99.90;;;;;;5074826;28;20047;-76
2022/09/29 09:47:19;;;;;;;3.70;2.85;;;12.60;99.90;;;;;;5091943;28;20542;-76
2022/09/29 09:49:56;;;;;;;2.72;2.10;;;12.60;99.90;;;;;;5091852;28;20359;-76
2022/09/29 09:52:31;;;;;;;4.07;2.70;;;12.70;99.90;;;;;;5091962;28;20414;-76
2022/09/29 09:55:03;;;;;;;2.95;2.10;;;12.70;99.90;;;;;;5091742;28;20044;-76
2022/09/29 09:57:32;;;;;;;2.90;2.50;;;12.70;99.90;;;;;;5091766;28;20473;-77
2022/09/29 10:00:12;;;;;;;2.97;2.10;;;12.80;99.90;;;;;;5091695;28;20094;-77
2022/09/29 10:03:01;;;;;;;2.70;2.20;;;12.90;99.90;;;;;;5091465;28;20126;-77
2022/09/29 10:05:38;;;;;;;2.40;1.70;;;13.00;99.90;;;;;;5090924;28;20134;-77
2022/09/29 10:08:28;;;;;;;2.83;2.03;;;13.10;99.90;;;;;;5091753;28;20048;-76
2022/09/29 10:10:55;;;;;;;2.88;2.40;;;13.10;99.90;;;;;;5091707;28;20650;-76
2022/09/29 10:13:25;;;;;;;3.35;2.40;;;13.30;99.90;;;;;;5091585;28;20044;-77
2022/09/29 10:15:56;;;;;;;2.20;2.00;;;13.30;99.90;;;;;;5075033;28;20220;-76
2022/09/29 10:18:29;;;;;;;2.45;1.90;;;13.40;99.90;;;;;;5091502;28;20104;-76
2022/09/29 10:20:55;;;;;;;2.83;1.77;;;13.50;99.90;;;;;;5092061;28;20040;-76
2022/09/29 10:23:29;;;;;;;3.63;2.13;;;13.50;99.90;;;;;;5092174;28;20496;-76
2022/09/29 10:26:03;;;;;;;1.85;1.52;;;13.70;99.90;;;;;;5092203;28;20036;-76
2022/09/29 10:28:46;;;;;;;2.55;1.80;;;13.80;99.90;;;;;;5092476;28;20035;-76
2022/09/29 10:31:33;;;;;;;1.20;1.10;;;14.00;99.90;;;;;;5091285;28;20040;-76
2022/09/29 10:34:01;;;;;;;;;;;14.30;99.90;;;;;;5092135;28;20085;-76
2022/09/29 10:36:32;;;;;;;1.77;1.30;;;14.50;99.90;;;;;;5091181;28;19920;-76
2022/09/29 10:38:59;;;;;;;2.63;1.70;;;14.70;99.90;;;;;;5090708;28;20048;-76
2022/09/29 10:41:24;;;;;;;2.72;1.70;;;14.50;99.90;;;;;;5074220;28;20052;-76
2022/09/29 10:43:51;;;;;;;2.50;1.60;;;14.40;99.90;;;;;;5073972;28;20048;-76
2022/09/29 10:46:48;;;;;;;1.85;1.55;;;14.70;99.90;;;;;;5090980;28;20051;-76
2022/09/29 10:49:23;;;;;;;2.25;1.30;;;14.90;99.90;;;;;;5090872;28;20044;-76
2022/09/29 10:51:53;;;;;;;1.83;1.20;;;15.20;99.90;;;;;;5091105;28;20383;-76
2022/09/29 10:54:24;;;;;;;2.22;1.30;;;15.40;99.90;;;;;;5091112;28;20063;-77
2022/09/29 10:56:51;;;;;;;1.23;1.00;;;15.50;99.90;;;;;;5074045;28;20086;-76
2022/09/29 10:59:18;;;;;;;1.50;1.20;;;15.80;99.90;;;;;;5090383;28;20105;-76
2022/09/29 11:01:50;;;;;;;1.40;1.00;;;15.90;99.90;;;;;;5090546;28;20067;-76
2022/09/29 11:04:21;;;;;;;1.75;1.20;;;15.90;99.90;;;;;;5073184;28;20135;-76
2022/09/29 11:06:47;;;;;;;1.42;1.00;;;16.10;99.90;;;;;;5073427;28;20035;-76
2022/09/29 11:09:16;;;;;;;0.73;0.70;;;16.40;99.90;;;;;;5056432;28;20044;-76
2022/09/29 11:11:48;;;;;;;1.08;0.90;;;16.50;99.90;;;;;;5068976;28;20035;-76
2022/09/29 11:14:29;;;;;;;1.83;1.00;;;16.80;99.90;;;;;;5073213;28;20055;-78
2022/09/29 11:17:00;;;;;;;1.70;1.10;;;16.80;99.90;;;;;;5090025;28;20503;-78
2022/09/29 11:19:28;;;;;;;1.67;1.30;;;17.00;99.90;;;;;;5090044;28;20040;-78
2022/09/29 11:22:10;;;;;;;1.17;0.90;;;16.90;99.90;;;;;;5090293;28;20054;-78
2022/09/29 11:24:59;;;;;;;1.15;0.90;;;17.30;99.90;;;;;;5090118;28;20054;-78
2022/09/29 11:27:52;;;;;;;0.90;0.80;;;17.10;99.50;;;;;;5070455;28;20492;-77
2022/09/29 11:30:21;;;;;;;1.30;0.80;;;17.00;99.90;;;;;;5084149;28;20555;-77
2022/09/29 11:33:11;;;;;;;0.95;0.85;;;16.70;99.70;;;;;;5089755;28;20517;-78
2022/09/29 11:36:15;;;;;;;2.17;1.48;;;16.50;99.90;;;;;;5072709;28;20035;-77
2022/09/29 11:38:49;;;;;;;1.33;1.02;;;15.80;99.90;;;;;;5089585;28;20043;-77
2022/09/29 11:41:24;;;;;;;1.52;1.20;;;15.40;99.90;;;;;;5069242;28;20048;-78
2022/09/29 11:44:09;;;;;;;1.30;1.00;;;15.10;99.90;;;;;;5089311;28;20384;-77
2022/09/29 11:47:04;;;;;;;1.20;0.90;;;15.10;99.90;;;;;;5089629;28;20044;-78
2022/09/29 11:49:32;;;;;;;1.75;1.00;;;14.90;99.90;;;;;;5089313;28;20049;-77
2022/09/29 11:52:20;;;;;;;1.00;0.80;;;15.00;99.90;;;;;;5086770;28;20495;-77
2022/09/29 11:55:25;;;;;;;0.88;0.77;;;15.60;99.90;;;;;;5085224;28;20069;-77
2022/09/29 11:58:10;;;;;;;1.35;0.90;;;16.30;99.90;;;;;;5087157;28;20371;-77
2022/09/29 12:00:44;;;;;;;1.00;0.90;;;16.60;97.90;;;;;;5062628;28;20047;-79
2022/09/29 12:03:27;;;;;;;1.05;0.75;;;16.90;98.90;;;;;;5077011;28;20124;-74
2022/09/29 12:06:24;;;;;;;1.30;0.82;;;16.80;97.90;;;;;;5091879;28;20039;-84
2022/09/29 12:09:01;;;;;;;0.80;0.52;;;17.00;98.00;;;;;;5096815;28;20048;-80
2022/09/29 12:11:39;;;;;;;0.68;0.60;;;17.30;97.10;;;;;;5085922;28;20419;-76
2022/09/29 12:14:40;;;;;;;1.15;0.77;;;17.80;99.70;;;;;;5073009;28;20050;-76
2022/09/29 12:17:14;;;;;;;0.98;0.70;;;17.90;98.00;;;;;;5040741;28;20056;-76
2022/09/29 12:19:42;;;;;;;1.70;0.77;;;17.60;96.10;;;;;;5086748;28;20554;-77
2022/09/29 12:22:12;;;;;;;0.77;0.57;;;17.10;96.50;;;;;;5077693;28;20040;-76
2022/09/29 12:24:50;;;;;;;0.50;0.50;;;16.60;97.70;;;;;;5088756;28;20625;-76
2022/09/29 12:27:27;;;;;;;0.40;0.38;;;16.40;99.00;;;;;;5088433;28;20040;-76
2022/09/29 12:29:56;;;;;;;;;;;16.10;99.00;;;;;;5089863;28;20383;-76
2022/09/29 12:32:28;;;;;;;0.80;0.65;;;15.70;98.80;;;;;;5071922;28;19931;-76
2022/09/29 12:35:03;;;;;;;1.15;0.77;;;15.50;99.10;;;;;;5080176;28;20037;-75
2022/09/29 12:37:40;;;;;;;0.98;0.60;;;15.30;99.90;;;;;;5073917;28;20028;-77
2022/09/29 12:41:02;;;;;;;0.80;0.70;;;15.00;99.80;;;;;;5088433;28;20101;-77
2022/09/29 12:43:50;;;;;;;0.85;0.70;;;14.90;99.90;;;;;;5053579;28;20523;-76
2022/09/29 12:46:34;;;;;;;1.38;0.50;;;14.80;99.90;;;;;;5086084;28;20152;-71
2022/09/29 12:49:21;;;;;;;1.35;0.40;;;14.80;99.90;;;;;;5089138;28;20052;-72
2022/09/29 12:51:49;;;;;;;0.95;0.60;;;14.70;99.90;;;;;;5088716;28;20032;-73
2022/09/29 12:54:50;;;;;;;0.55;0.40;;;14.60;99.90;;;;;;5089172;28;20040;-79
2022/09/29 12:57:24;;;;;;;1.55;0.60;;;14.70;99.90;;;;;;5088924;28;20506;-79
2022/09/29 13:00:11;;;;;;;0.60;0.60;;;14.60;99.90;;;;;;5071659;28;20052;-79
2022/09/29 13:03:09;;;;;;;0.50;0.45;;;14.60;99.90;;;;;;5088500;28;20052;-79
2022/09/29 13:06:05;;;;;;;1.15;0.63;;;14.50;99.90;;;;;;5088729;28;20048;-78
2022/09/29 13:08:56;;;;;;;1.00;0.60;;;14.50;99.90;;;;;;5071688;28;20032;-78
2022/09/29 13:11:22;;;;;;;0.60;0.60;;;14.50;99.90;;;;;;5088788;28;20040;-79
2022/09/29 13:14:39;;;;;;;1.33;0.65;;;14.60;99.90;;;;;;5090378;28;20505;-78
2022/09/29 13:17:08;;;;;;;0.90;0.65;;;14.60;99.90;;;;;;5062151;28;20048;-78
2022/09/29 13:20:01;;;;;;;0.50;0.40;;;14.70;99.90;;;;;;5081488;28;20101;-79
2022/09/29 13:22:46;;;;;;;1.10;0.57;;;14.80;99.90;;;;;;5081563;28;20079;-79
2022/09/29 13:25:27;;;;;;;0.50;0.40;;;14.80;99.90;;;;;;5101005;28;20031;-78